Time;durP1;ratioP1;P1;durP2;ratioP2;P2;SDS_P1;SDS_P2;PMS_P1;PMS_P2;Temp;Humidity;BMP_temperature;BMP_pressure;BME280_temperature;BME280_humidity;BME280_pressure;Samples;Min_cycle;Max_cycle;Signal;HPM_P1;HPM_P2
2022/06/12 00:01:09;;;;;;;7.33;3.87;;;28.00;42.60;;;;;;4920333;28;89273;-76
2022/06/12 00:03:38;;;;;;;5.53;3.40;;;27.90;42.50;;;;;;4921472;28;89320;-77
2022/06/12 00:06:07;;;;;;;4.73;3.07;;;28.00;42.70;;;;;;4921613;28;88353;-77
2022/06/12 00:08:36;;;;;;;6.60;3.60;;;28.00;42.80;;;;;;4921679;28;90673;-77
2022/06/12 00:11:08;;;;;;;5.40;3.27;;;27.90;42.80;;;;;;4921213;28;88645;-77
2022/06/12 00:13:40;;;;;;;5.53;3.30;;;28.00;43.00;;;;;;4920962;28;90827;-77
2022/06/12 00:16:09;;;;;;;6.80;3.90;;;27.90;42.90;;;;;;4921454;28;89629;-77
2022/06/12 00:18:38;;;;;;;5.63;3.83;;;27.90;43.00;;;;;;4921653;28;88903;-78
2022/06/12 00:21:12;;;;;;;4.63;2.80;;;27.90;43.00;;;;;;4921910;28;88603;-78
2022/06/12 00:23:42;;;;;;;5.73;2.90;;;27.90;43.10;;;;;;4920747;28;90578;-77
2022/06/12 00:26:11;;;;;;;3.57;2.17;;;27.90;43.20;;;;;;4921810;28;90293;-77
2022/06/12 00:28:41;;;;;;;6.83;3.30;;;27.90;43.20;;;;;;4922388;28;89084;-77
2022/06/12 00:31:09;;;;;;;3.40;2.30;;;27.90;43.20;;;;;;4925026;28;88528;-78
2022/06/12 00:33:37;;;;;;;3.23;2.33;;;27.90;43.20;;;;;;4924809;28;88914;-77
2022/06/12 00:36:06;;;;;;;5.30;2.93;;;27.90;43.30;;;;;;4923624;28;89381;-77
2022/06/12 00:38:34;;;;;;;4.33;2.77;;;27.90;43.40;;;;;;4924447;28;89067;-77
2022/06/12 00:41:04;;;;;;;4.20;2.40;;;27.90;43.40;;;;;;4924410;28;88524;-76
2022/06/12 00:43:32;;;;;;;4.13;1.97;;;27.90;43.40;;;;;;4924616;28;90300;-76
2022/06/12 00:46:02;;;;;;;3.13;1.80;;;27.90;43.30;;;;;;4923542;28;91222;-78
2022/06/12 00:48:34;;;;;;;3.97;2.07;;;27.80;43.30;;;;;;4924525;28;89802;-78
2022/06/12 00:51:04;;;;;;;2.30;1.93;;;27.80;43.40;;;;;;4925802;28;88461;-78
2022/06/12 00:53:35;;;;;;;2.93;1.90;;;27.90;43.50;;;;;;4932068;28;89968;-78
2022/06/12 00:56:07;;;;;;;2.87;1.80;;;27.80;43.50;;;;;;4924376;28;89352;-77
2022/06/12 00:58:40;;;;;;;2.03;1.83;;;27.80;43.50;;;;;;4919194;28;90758;-78
2022/06/12 01:01:12;;;;;;;5.03;2.10;;;27.80;43.60;;;;;;4924331;28;88548;-78
2022/06/12 01:06:37;;;;;;;2.60;1.73;;;27.80;43.70;;;;;;4905227;28;90920;-77
2022/06/12 01:09:07;;;;;;;3.20;1.70;;;27.80;43.70;;;;;;4915457;28;91357;-78
2022/06/12 01:11:36;;;;;;;2.20;1.67;;;27.80;43.80;;;;;;4922113;28;89342;-78
2022/06/12 01:14:07;;;;;;;3.40;2.00;;;27.80;43.80;;;;;;4934433;28;89304;-77
2022/06/12 01:16:39;;;;;;;2.33;1.80;;;27.80;43.90;;;;;;4942891;28;89363;-77
2022/06/12 01:19:07;;;;;;;4.37;1.77;;;27.80;43.90;;;;;;4941662;28;89077;-77
2022/06/12 01:22:32;;;;;;;6.87;1.80;;;27.80;43.90;;;;;;4924286;28;88690;-78
2022/06/12 01:25:26;;;;;;;3.07;1.77;;;27.80;43.90;;;;;;4855876;28;89493;-78
2022/06/12 01:28:10;;;;;;;2.20;1.23;;;27.70;43.90;;;;;;4830218;29;90626;-77
2022/06/12 01:30:42;;;;;;;5.70;1.47;;;27.70;43.90;;;;;;4904065;28;88437;-77
2022/06/12 01:33:12;;;;;;;2.40;1.20;;;27.70;43.90;;;;;;4924012;28;88468;-77
2022/06/12 01:35:44;;;;;;;1.93;1.20;;;27.70;43.90;;;;;;4923849;28;91904;-77
2022/06/12 01:38:15;;;;;;;3.60;1.10;;;27.70;43.90;;;;;;4909575;28;89058;-77
2022/06/12 01:40:46;;;;;;;1.97;1.20;;;27.70;43.90;;;;;;4923146;28;92065;-77
2022/06/12 01:43:17;;;;;;;2.87;1.43;;;27.70;43.90;;;;;;4924534;28;88719;-77
2022/06/12 01:45:50;;;;;;;4.17;1.63;;;27.70;43.90;;;;;;4923705;28;90794;-77
2022/06/12 01:48:25;;;;;;;3.60;1.50;;;27.70;44.00;;;;;;4933062;28;90101;-76
2022/06/12 01:50:57;;;;;;;2.37;1.50;;;27.70;43.90;;;;;;4929428;28;88476;-77
2022/06/12 01:53:31;;;;;;;2.57;1.13;;;27.70;43.90;;;;;;4926906;28;88585;-77
2022/06/12 01:56:06;;;;;;;2.23;1.40;;;27.70;43.90;;;;;;4924059;28;89274;-77
2022/06/12 01:58:44;;;;;;;2.17;1.00;;;27.70;43.90;;;;;;4923267;28;90181;-77
2022/06/12 02:01:17;;;;;;;1.77;1.20;;;27.70;44.00;;;;;;4923429;28;88504;-77
2022/06/12 02:03:49;;;;;;;1.70;1.03;;;27.70;44.00;;;;;;4922936;28;88575;-76
2022/06/12 02:06:18;;;;;;;1.67;1.30;;;27.70;44.10;;;;;;4922967;28;89547;-77
2022/06/12 02:08:48;;;;;;;2.30;1.23;;;27.60;44.00;;;;;;4923449;28;93231;-78
2022/06/12 02:14:06;;;;;;;1.73;1.17;;;27.60;44.00;;;;;;4917611;28;88495;-77
2022/06/12 02:16:38;;;;;;;3.33;1.40;;;27.60;44.00;;;;;;4922734;28;91227;-78
2022/06/12 02:19:10;;;;;;;3.37;1.40;;;27.70;44.00;;;;;;4923143;28;91995;-77
2022/06/12 02:21:41;;;;;;;1.47;1.00;;;27.70;44.10;;;;;;4930559;28;88301;-77
2022/06/12 02:24:11;;;;;;;3.43;1.20;;;27.60;44.00;;;;;;4932428;28;88540;-77
2022/06/12 02:26:40;;;;;;;1.77;0.90;;;27.60;44.00;;;;;;4942071;28;89569;-77
2022/06/12 02:29:12;;;;;;;1.20;0.90;;;27.60;44.00;;;;;;4941958;28;90853;-77
2022/06/12 02:31:43;;;;;;;3.30;0.83;;;27.60;44.00;;;;;;4933334;28;89098;-77
2022/06/12 02:34:14;;;;;;;3.17;1.20;;;27.60;44.00;;;;;;4923419;28;88685;-77
2022/06/12 02:36:45;;;;;;;4.33;1.53;;;27.60;44.00;;;;;;4923303;28;89317;-77
2022/06/12 02:39:15;;;;;;;4.00;1.00;;;27.60;43.90;;;;;;4923089;28;88529;-77
2022/06/12 02:41:45;;;;;;;0.97;0.60;;;27.60;43.90;;;;;;4923059;28;88357;-78
2022/06/12 02:44:15;;;;;;;2.30;0.73;;;27.60;43.90;;;;;;4923692;28;88629;-77
2022/06/12 02:46:46;;;;;;;2.07;1.43;;;27.60;43.90;;;;;;4922796;28;89525;-77
2022/06/12 02:49:15;;;;;;;1.93;1.07;;;27.60;44.00;;;;;;4922498;28;88750;-75
2022/06/12 02:51:46;;;;;;;2.40;1.10;;;27.60;44.00;;;;;;4922781;28;88397;-78
2022/06/12 02:54:18;;;;;;;1.80;0.97;;;27.60;44.10;;;;;;4924037;28;88290;-76
2022/06/12 02:56:49;;;;;;;2.00;1.00;;;27.60;44.20;;;;;;4916506;28;91350;-75
2022/06/12 02:59:28;;;;;;;2.40;0.90;;;27.60;44.30;;;;;;4922189;28;89174;-75
2022/06/12 03:02:05;;;;;;;3.60;1.03;;;27.60;44.40;;;;;;4922519;28;88979;-76
2022/06/12 03:04:37;;;;;;;4.83;0.90;;;27.60;44.40;;;;;;4920544;28;88701;-76
2022/06/12 03:07:05;;;;;;;2.00;0.90;;;27.60;44.70;;;;;;4922164;28;89325;-76
2022/06/12 03:09:33;;;;;;;2.37;0.80;;;27.60;44.60;;;;;;4922413;28;90579;-76
2022/06/12 03:12:01;;;;;;;1.17;0.63;;;27.60;44.60;;;;;;4922066;28;88439;-76
2022/06/12 03:14:29;;;;;;;2.50;0.80;;;27.60;44.60;;;;;;4922403;28;88712;-76
2022/06/12 03:16:59;;;;;;;3.47;0.90;;;27.60;44.60;;;;;;4922018;28;89576;-75
2022/06/12 03:19:28;;;;;;;1.80;0.90;;;27.60;44.60;;;;;;4922512;28;93299;-77
2022/06/12 03:22:03;;;;;;;2.17;0.90;;;27.60;44.70;;;;;;4921469;28;88824;-76
2022/06/12 03:24:42;;;;;;;1.83;1.30;;;27.50;44.60;;;;;;4922328;28;88662;-76
2022/06/12 03:27:45;;;;;;;1.40;0.63;;;27.50;44.60;;;;;;4921721;28;89996;-76
2022/06/12 03:30:16;;;;;;;1.57;0.57;;;27.50;44.70;;;;;;4901173;28;90132;-76
2022/06/12 03:32:49;;;;;;;1.40;0.50;;;27.50;45.40;;;;;;4917196;28;92462;-76
2022/06/12 03:35:22;;;;;;;2.60;0.97;;;27.50;44.70;;;;;;4921958;28;88608;-76
2022/06/12 03:37:54;;;;;;;3.03;1.13;;;27.50;44.70;;;;;;4922982;28;89389;-76
2022/06/12 03:40:25;;;;;;;2.90;0.90;;;27.50;44.70;;;;;;4922529;28;88858;-76
2022/06/12 03:42:55;;;;;;;1.73;0.63;;;27.50;45.10;;;;;;4922344;28;88412;-76
2022/06/12 03:45:25;;;;;;;1.60;0.80;;;27.50;44.80;;;;;;4920449;28;89195;-76
2022/06/12 03:47:55;;;;;;;3.70;0.80;;;27.50;44.80;;;;;;4921276;28;89039;-76
2022/06/12 03:50:27;;;;;;;3.40;0.90;;;27.50;44.80;;;;;;4922096;28;91895;-76
2022/06/12 03:52:57;;;;;;;1.43;0.90;;;27.50;44.70;;;;;;4922629;28;89343;-76
2022/06/12 03:57:50;;;;;;;1.17;0.63;;;27.50;44.80;;;;;;4926859;28;88438;-76
2022/06/12 03:58:17;;;;;;;5.20;0.97;;;27.50;44.80;;;;;;4921593;28;88397;-76
2022/06/12 04:00:47;;;;;;;0.67;0.57;;;27.50;44.80;;;;;;4920364;28;90521;-76
2022/06/12 04:03:18;;;;;;;1.87;0.90;;;27.50;44.80;;;;;;4921847;28;91060;-76
2022/06/12 04:05:47;;;;;;;2.07;0.63;;;27.50;44.80;;;;;;4921644;28;88416;-75
2022/06/12 04:08:18;;;;;;;1.20;0.77;;;27.50;44.80;;;;;;4921423;28;89640;-76
2022/06/12 04:10:46;;;;;;;2.80;1.10;;;27.50;44.80;;;;;;4935029;28;88712;-75
2022/06/12 04:13:15;;;;;;;1.33;0.73;;;27.50;44.80;;;;;;4934579;28;90903;-76
2022/06/12 04:15:45;;;;;;;1.63;0.70;;;27.50;44.90;;;;;;4921857;28;88587;-76
2022/06/12 04:18:13;;;;;;;2.47;0.67;;;27.50;44.80;;;;;;4920445;28;89383;-76
2022/06/12 04:20:49;;;;;;;1.57;0.87;;;27.50;44.80;;;;;;4921964;28;88459;-76
2022/06/12 04:23:20;;;;;;;1.53;0.70;;;27.50;44.80;;;;;;4921128;28;91747;-76
2022/06/12 04:25:50;;;;;;;1.80;0.80;;;27.60;45.50;;;;;;4921217;28;88921;-76
2022/06/12 04:28:27;;;;;;;1.33;0.50;;;27.80;44.70;;;;;;4921812;28;90699;-76
2022/06/12 04:30:55;;;;;;;1.23;0.70;;;28.00;44.50;;;;;;4927303;28;89204;-76
2022/06/12 04:33:44;;;;;;;1.80;0.60;;;28.30;44.20;;;;;;4931662;28;88625;-76
2022/06/12 04:36:14;;;;;;;1.90;1.07;;;28.60;43.90;;;;;;4928597;28;88342;-76
2022/06/12 04:38:42;;;;;;;0.80;0.70;;;28.90;43.70;;;;;;4921354;28;89848;-76
2022/06/12 04:41:12;;;;;;;0.80;0.80;;;29.20;43.40;;;;;;4921176;28;92562;-76
2022/06/12 04:43:40;;;;;;;2.23;0.57;;;29.40;43.20;;;;;;4921727;28;88917;-76
2022/06/12 04:46:09;;;;;;;1.40;0.60;;;29.60;43.00;;;;;;4921059;28;88496;-76
2022/06/12 04:48:38;;;;;;;1.33;0.60;;;29.70;42.70;;;;;;4920933;28;89889;-76
2022/06/12 04:51:06;;;;;;;1.20;0.57;;;30.00;42.60;;;;;;4920714;28;90853;-77
2022/06/12 04:53:36;;;;;;;3.80;0.87;;;30.20;42.30;;;;;;4921744;28;88333;-76
2022/06/12 04:56:05;;;;;;;0.63;0.43;;;30.30;42.10;;;;;;4921269;28;88561;-76
2022/06/12 04:58:33;;;;;;;2.83;0.73;;;30.10;41.90;;;;;;4920897;28;90115;-76
2022/06/12 05:01:01;;;;;;;1.87;0.90;;;29.90;42.10;;;;;;4921108;28;91782;-76
2022/06/12 05:03:29;;;;;;;1.27;0.50;;;29.70;42.30;;;;;;4921123;28;88761;-76
2022/06/12 05:05:57;;;;;;;0.60;0.60;;;29.50;42.40;;;;;;4928989;28;88328;-76
2022/06/12 05:08:25;;;;;;;1.23;0.50;;;29.30;42.50;;;;;;4923597;28;90611;-76
2022/06/12 05:10:55;;;;;;;2.30;0.60;;;29.20;42.60;;;;;;4922340;28;90116;-76
2022/06/12 05:13:23;;;;;;;1.77;0.67;;;29.00;42.70;;;;;;4920756;28;90824;-76
2022/06/12 05:15:51;;;;;;;2.00;0.97;;;28.90;42.80;;;;;;4924195;28;88715;-77
2022/06/12 05:18:19;;;;;;;2.00;0.53;;;28.80;43.50;;;;;;4942676;28;89515;-76
2022/06/12 05:20:47;;;;;;;2.07;0.67;;;28.80;42.80;;;;;;4933489;28;88858;-77
2022/06/12 05:23:18;;;;;;;1.60;0.87;;;28.80;42.90;;;;;;4925594;28;89638;-76
2022/06/12 05:25:46;;;;;;;2.43;0.83;;;28.70;42.90;;;;;;4936190;28;88764;-77
2022/06/12 05:28:17;;;;;;;1.83;0.70;;;28.70;42.90;;;;;;4924714;28;89333;-77
2022/06/12 05:30:45;;;;;;;2.10;0.90;;;28.60;42.90;;;;;;4924470;28;90540;-76
2022/06/12 05:33:14;;;;;;;3.53;0.67;;;28.60;43.00;;;;;;4924452;28;88699;-76
2022/06/12 05:35:42;;;;;;;1.60;0.60;;;28.60;43.00;;;;;;4923099;28;88466;-76
2022/06/12 05:38:10;;;;;;;0.70;0.50;;;28.60;43.00;;;;;;4924147;28;90951;-76
2022/06/12 05:40:39;;;;;;;2.97;0.80;;;28.50;43.00;;;;;;4923991;28;90359;-76
2022/06/12 05:43:08;;;;;;;1.90;0.93;;;28.60;43.10;;;;;;4923799;28;88296;-76
2022/06/12 05:45:37;;;;;;;1.50;0.80;;;28.50;43.10;;;;;;4924282;28;88425;-76
2022/06/12 05:48:08;;;;;;;1.40;0.67;;;28.50;43.00;;;;;;4923129;28;89663;-76
2022/06/12 05:50:46;;;;;;;0.80;0.50;;;28.50;43.10;;;;;;4921135;28;88794;-77
2022/06/12 05:53:14;;;;;;;1.07;0.60;;;28.50;43.10;;;;;;4922532;28;89793;-76
2022/06/12 05:55:43;;;;;;;1.27;0.83;;;28.50;43.10;;;;;;4923159;28;88590;-76
2022/06/12 05:58:11;;;;;;;1.23;0.67;;;28.50;43.10;;;;;;4922648;28;90735;-77
2022/06/12 06:00:41;;;;;;;1.10;0.70;;;28.50;43.10;;;;;;4922840;28;89263;-76
2022/06/12 06:03:09;;;;;;;2.37;0.80;;;28.50;43.10;;;;;;4922682;28;88284;-76
2022/06/12 06:05:38;;;;;;;2.53;0.80;;;28.50;43.10;;;;;;4922944;28;88502;-76
2022/06/12 06:08:08;;;;;;;1.83;0.90;;;28.50;43.10;;;;;;4922297;28;91679;-76
2022/06/12 06:10:39;;;;;;;0.67;0.60;;;28.50;43.10;;;;;;4920972;28;90184;-76
2022/06/12 06:13:07;;;;;;;1.23;0.60;;;28.50;43.10;;;;;;4923288;28;88949;-77
2022/06/12 06:15:35;;;;;;;3.47;0.90;;;28.50;43.10;;;;;;4922969;28;88556;-76
2022/06/12 06:18:05;;;;;;;1.57;0.90;;;28.50;43.10;;;;;;4918308;28;90403;-77
2022/06/12 06:20:35;;;;;;;0.80;0.80;;;28.50;43.10;;;;;;4907284;28;90033;-76
2022/06/12 06:23:03;;;;;;;1.90;1.07;;;28.50;43.10;;;;;;4918325;28;88750;-76
2022/06/12 06:25:32;;;;;;;1.33;0.90;;;28.50;43.00;;;;;;4918767;28;88702;-77
2022/06/12 06:28:00;;;;;;;1.87;1.37;;;28.50;43.10;;;;;;4907939;28;89912;-76
2022/06/12 06:30:28;;;;;;;1.03;0.80;;;28.50;43.00;;;;;;4915339;28;89479;-76
2022/06/12 06:32:57;;;;;;;2.77;0.90;;;28.50;43.00;;;;;;4921319;28;88543;-76
2022/06/12 06:35:26;;;;;;;1.53;1.17;;;28.50;43.00;;;;;;4915142;28;88454;-76
2022/06/12 06:37:55;;;;;;;1.37;0.93;;;28.50;43.70;;;;;;4908706;28;90622;-76
2022/06/12 06:40:25;;;;;;;2.67;1.30;;;28.50;43.00;;;;;;4917973;28;88828;-75
2022/06/12 06:42:53;;;;;;;2.37;1.20;;;28.50;43.00;;;;;;4917082;28;89360;-74
2022/06/12 06:48:07;;;;;;;5.03;1.47;;;28.60;43.00;;;;;;4913288;28;90358;-77
2022/06/12 06:50:39;;;;;;;1.93;1.03;;;28.50;43.00;;;;;;4903933;28;88443;-77
2022/06/12 06:53:07;;;;;;;1.90;1.00;;;28.60;43.00;;;;;;4914854;28;90704;-75
2022/06/12 06:55:35;;;;;;;1.93;1.60;;;28.60;43.00;;;;;;4905816;28;88656;-76
2022/06/12 06:58:07;;;;;;;1.53;1.10;;;28.60;43.00;;;;;;4908986;28;89901;-76
2022/06/12 07:00:38;;;;;;;2.57;1.33;;;28.60;43.00;;;;;;4910379;28;90602;-76
2022/06/12 07:03:06;;;;;;;3.67;1.23;;;27.70;43.10;;;;;;4911863;28;88371;-76
2022/06/12 07:05:34;;;;;;;2.43;1.10;;;28.60;43.00;;;;;;4912573;28;88667;-76
2022/06/12 07:08:05;;;;;;;2.33;1.53;;;28.60;43.00;;;;;;4908780;28;90845;-76
2022/06/12 07:10:33;;;;;;;1.87;1.20;;;28.60;43.00;;;;;;4893329;28;88682;-75
2022/06/12 07:13:02;;;;;;;3.60;1.63;;;28.60;42.90;;;;;;4906034;28;88910;-76
2022/06/12 07:15:31;;;;;;;2.30;1.07;;;28.60;42.90;;;;;;4903615;28;88699;-76
2022/06/12 07:17:59;;;;;;;3.73;1.33;;;28.60;42.90;;;;;;4913825;28;89799;-76
2022/06/12 07:20:29;;;;;;;1.13;0.87;;;28.60;42.90;;;;;;4919011;28;91548;-76
2022/06/12 07:22:57;;;;;;;2.10;1.43;;;28.60;43.60;;;;;;4920601;28;88670;-76
2022/06/12 07:25:28;;;;;;;6.10;1.50;;;28.60;42.90;;;;;;4919829;28;88475;-77
2022/06/12 07:27:56;;;;;;;2.47;1.70;;;28.60;42.90;;;;;;4922616;28;89478;-76
2022/06/12 07:30:38;;;;;;;3.63;1.60;;;28.60;43.50;;;;;;4923912;28;90137;-77
2022/06/12 07:33:07;;;;;;;2.83;2.00;;;28.60;42.90;;;;;;4922974;28;88746;-76
2022/06/12 07:35:35;;;;;;;3.07;1.97;;;28.60;42.90;;;;;;4923627;28;88345;-78
2022/06/12 07:38:04;;;;;;;2.60;2.03;;;28.60;43.00;;;;;;4921139;28;93091;-79
2022/06/12 07:40:36;;;;;;;3.73;2.37;;;28.60;42.90;;;;;;4920247;28;91403;-78
2022/06/12 07:43:05;;;;;;;3.07;1.80;;;28.60;43.00;;;;;;4918177;28;88475;-77
2022/06/12 07:45:33;;;;;;;5.30;2.77;;;28.70;43.10;;;;;;4921854;28;88372;-79
2022/06/12 07:48:01;;;;;;;2.47;1.80;;;28.60;43.10;;;;;;4921049;28;89539;-77
2022/06/12 07:50:29;;;;;;;4.27;2.30;;;28.70;43.30;;;;;;4918384;28;90235;-78
2022/06/12 07:52:58;;;;;;;3.07;2.67;;;28.70;43.40;;;;;;4920445;28;88992;-79
2022/06/12 07:55:26;;;;;;;2.50;2.10;;;28.70;43.50;;;;;;4921057;28;88648;-78
2022/06/12 07:57:56;;;;;;;2.93;2.43;;;28.70;43.60;;;;;;4908844;28;90702;-78
2022/06/12 08:00:24;;;;;;;4.17;2.37;;;28.70;43.60;;;;;;4908296;28;90257;-77
2022/06/12 08:02:52;;;;;;;3.20;2.20;;;28.70;43.70;;;;;;4910672;28;88574;-79
2022/06/12 08:05:21;;;;;;;3.70;2.40;;;28.70;43.70;;;;;;4912900;28;88415;-77
2022/06/12 08:07:49;;;;;;;2.47;1.47;;;28.70;43.80;;;;;;4906645;28;92755;-78
2022/06/12 08:10:17;;;;;;;5.70;2.07;;;28.80;43.90;;;;;;4907573;28;88842;-78
2022/06/12 08:12:46;;;;;;;2.33;1.80;;;28.80;44.00;;;;;;4909412;28;88468;-78
2022/06/12 08:15:17;;;;;;;4.73;2.60;;;28.80;44.10;;;;;;4911153;28;88716;-77
2022/06/12 08:17:45;;;;;;;4.73;2.27;;;28.80;44.80;;;;;;4904448;28;93533;-76
2022/06/12 08:20:25;;;;;;;4.67;2.73;;;28.80;44.20;;;;;;4908683;28;89479;-77
2022/06/12 08:22:54;;;;;;;3.30;1.93;;;28.70;44.20;;;;;;4904734;28;88527;-76
2022/06/12 08:25:22;;;;;;;3.17;1.93;;;28.80;44.20;;;;;;4908880;28;88696;-76
2022/06/12 08:27:50;;;;;;;3.97;2.43;;;28.80;44.30;;;;;;4912539;28;90760;-77
2022/06/12 08:30:19;;;;;;;3.17;2.13;;;28.80;44.30;;;;;;4916683;28;89239;-75
2022/06/12 08:32:48;;;;;;;4.60;2.27;;;28.80;44.40;;;;;;4917104;28;88914;-76
2022/06/12 08:35:18;;;;;;;3.97;2.43;;;28.70;44.30;;;;;;4918193;28;88706;-74
2022/06/12 08:37:46;;;;;;;4.80;2.47;;;28.70;44.40;;;;;;4920007;28;89251;-75
2022/06/12 08:40:18;;;;;;;3.73;2.57;;;28.80;44.40;;;;;;4914042;28;91640;-75
2022/06/12 08:42:48;;;;;;;5.93;2.50;;;28.80;44.60;;;;;;4920264;28;88813;-75
2022/06/12 08:45:16;;;;;;;4.17;2.90;;;28.70;44.50;;;;;;4903685;28;88485;-75
2022/06/12 08:47:49;;;;;;;7.00;3.17;;;28.80;44.60;;;;;;4900845;28;92244;-75
2022/06/12 08:50:20;;;;;;;4.33;3.13;;;28.70;44.50;;;;;;4910431;28;91668;-75
2022/06/12 08:52:51;;;;;;;4.43;3.07;;;28.80;44.60;;;;;;4915908;28;88616;-75
2022/06/12 08:55:21;;;;;;;5.63;3.00;;;28.80;44.60;;;;;;4912073;28;89849;-75
2022/06/12 08:57:52;;;;;;;6.33;3.50;;;28.70;44.50;;;;;;4912808;28;89522;-75
2022/06/12 09:00:21;;;;;;;6.77;3.37;;;28.70;44.50;;;;;;4914135;28;88985;-75
2022/06/12 09:02:51;;;;;;;5.30;3.20;;;28.70;44.50;;;;;;4920242;28;88662;-75
2022/06/12 09:05:21;;;;;;;9.30;3.47;;;28.70;44.60;;;;;;4920011;28;88642;-76
2022/06/12 09:07:51;;;;;;;6.10;3.50;;;28.70;44.50;;;;;;4920684;28;92839;-75
2022/06/12 09:10:32;;;;;;;8.40;3.40;;;28.70;44.50;;;;;;4920131;28;88929;-75
2022/06/12 09:13:06;;;;;;;9.20;3.47;;;28.70;44.50;;;;;;4922834;28;89226;-75
2022/06/12 09:15:37;;;;;;;5.80;3.20;;;28.70;44.50;;;;;;4920195;28;88587;-75
2022/06/12 09:18:12;;;;;;;5.43;3.30;;;28.70;45.20;;;;;;4920247;28;90626;-75
2022/06/12 09:20:43;;;;;;;6.10;3.47;;;28.70;44.60;;;;;;4920598;28;89447;-74
2022/06/12 09:23:15;;;;;;;6.83;3.63;;;28.70;44.60;;;;;;4918429;28;88596;-75
2022/06/12 09:25:47;;;;;;;5.80;3.77;;;28.70;44.60;;;;;;4918319;28;88835;-75
2022/06/12 09:28:22;;;;;;;5.30;3.03;;;28.70;44.60;;;;;;4921680;28;89498;-75
2022/06/12 09:30:53;;;;;;;8.17;3.60;;;28.70;44.60;;;;;;4929196;28;90184;-75
2022/06/12 09:33:25;;;;;;;6.70;3.00;;;28.70;44.60;;;;;;4923560;28;88665;-75
2022/06/12 09:36:03;;;;;;;5.67;3.13;;;28.70;44.70;;;;;;4922643;28;88670;-75
2022/06/12 09:38:41;;;;;;;5.70;3.17;;;28.60;44.60;;;;;;4927947;28;92634;-75
2022/06/12 09:41:12;;;;;;;6.33;3.00;;;28.70;44.60;;;;;;4910718;28;90091;-75
2022/06/12 09:43:42;;;;;;;4.33;3.17;;;28.70;44.70;;;;;;4904479;28;88787;-75
2022/06/12 09:46:30;;;;;;;6.40;2.93;;;28.70;44.70;;;;;;4907151;28;88605;-75
2022/06/12 09:49:03;;;;;;;4.87;3.03;;;28.60;44.70;;;;;;4902770;28;89531;-75
2022/06/12 09:51:42;;;;;;;7.23;3.43;;;28.60;44.60;;;;;;4902593;28;89283;-74
2022/06/12 09:54:35;;;;;;;5.00;2.90;;;28.70;44.70;;;;;;4904746;28;90315;-75
2022/06/12 09:57:06;;;;;;;5.70;3.70;;;28.70;44.70;;;;;;4911375;28;88550;-75
2022/06/12 09:59:38;;;;;;;8.80;3.50;;;28.70;44.70;;;;;;4923108;28;90794;-75
2022/06/12 10:02:12;;;;;;;5.27;3.10;;;28.70;44.70;;;;;;4909717;28;89883;-74
2022/06/12 10:04:45;;;;;;;6.37;2.90;;;28.70;44.70;;;;;;4919108;28;89143;-75
2022/06/12 10:07:16;;;;;;;3.30;2.40;;;28.80;44.70;;;;;;4922712;28;88507;-75
2022/06/12 10:09:46;;;;;;;3.27;2.90;;;28.80;44.60;;;;;;4921622;28;93902;-75
2022/06/12 10:12:15;;;;;;;5.13;2.60;;;28.70;44.60;;;;;;4921013;28;90961;-75
2022/06/12 10:14:44;;;;;;;4.70;3.10;;;28.80;44.60;;;;;;4921914;28;88571;-75
2022/06/12 10:17:15;;;;;;;6.17;3.00;;;28.80;44.60;;;;;;4923109;28;88506;-74
2022/06/12 10:19:46;;;;;;;7.53;2.77;;;28.80;44.60;;;;;;4917227;28;89334;-75
2022/06/12 10:22:16;;;;;;;4.97;2.30;;;28.80;44.60;;;;;;4914858;28;89091;-75
2022/06/12 10:24:49;;;;;;;5.80;3.17;;;28.80;44.50;;;;;;4910406;28;88862;-75
2022/06/12 10:27:19;;;;;;;3.57;2.10;;;28.80;44.50;;;;;;4907705;28;88665;-75
2022/06/12 10:29:50;;;;;;;4.60;2.73;;;28.90;44.60;;;;;;4908066;28;90026;-75
2022/06/12 10:32:19;;;;;;;4.23;2.83;;;28.80;44.50;;;;;;4911188;28;89041;-75
2022/06/12 10:34:51;;;;;;;3.27;2.67;;;28.90;44.60;;;;;;4913400;28;88636;-75
2022/06/12 10:37:23;;;;;;;3.20;2.27;;;28.90;45.20;;;;;;4914825;28;88418;-76
2022/06/12 10:40:01;;;;;;;4.93;2.27;;;28.90;44.50;;;;;;4913255;28;93479;-75
2022/06/12 10:42:37;;;;;;;5.80;2.63;;;28.90;44.50;;;;;;4912407;28;90144;-75
2022/06/12 10:45:15;;;;;;;3.57;2.03;;;28.90;44.50;;;;;;4919592;28;88381;-75
2022/06/12 10:47:44;;;;;;;3.77;2.47;;;28.90;44.40;;;;;;4917968;28;88582;-75
2022/06/12 10:50:20;;;;;;;4.20;2.23;;;28.90;44.40;;;;;;4921690;28;89732;-75
2022/06/12 10:52:57;;;;;;;4.00;2.00;;;28.90;44.40;;;;;;4917601;28;89476;-75
2022/06/12 10:55:42;;;;;;;2.77;2.10;;;28.90;44.40;;;;;;4922391;28;92627;-75
2022/06/12 10:58:22;;;;;;;3.47;2.33;;;28.90;45.00;;;;;;4920659;28;88444;-75
2022/06/12 11:00:50;;;;;;;4.40;2.17;;;28.90;44.40;;;;;;4921330;28;89633;-75
2022/06/12 11:03:21;;;;;;;4.10;2.03;;;29.00;44.40;;;;;;4918899;28;90632;-75
2022/06/12 11:05:59;;;;;;;3.93;2.10;;;29.00;44.40;;;;;;4927952;28;88464;-75
2022/06/12 11:08:46;;;;;;;3.07;2.10;;;29.00;44.40;;;;;;4923014;28;89507;-75
2022/06/12 11:11:16;;;;;;;4.07;2.03;;;29.00;44.30;;;;;;4921324;28;89521;-75
2022/06/12 11:13:52;;;;;;;4.93;2.10;;;29.00;44.30;;;;;;4922681;28;88787;-75
2022/06/12 11:16:30;;;;;;;3.00;2.00;;;29.10;44.30;;;;;;4921962;28;88353;-75
2022/06/12 11:19:21;;;;;;;3.43;2.23;;;29.10;44.30;;;;;;4918980;28;88486;-76
2022/06/12 11:21:55;;;;;;;4.60;2.93;;;29.10;44.30;;;;;;4918579;28;89594;-75
2022/06/12 11:24:25;;;;;;;2.90;1.73;;;29.10;44.30;;;;;;4917181;28;89212;-75
2022/06/12 11:27:14;;;;;;;3.93;2.20;;;29.10;44.20;;;;;;4917363;28;88457;-74
2022/06/12 11:29:52;;;;;;;4.80;2.50;;;29.10;44.30;;;;;;4916075;28;88713;-75
2022/06/12 11:32:25;;;;;;;5.30;2.10;;;29.10;44.20;;;;;;4916976;28;90714;-75
2022/06/12 11:35:02;;;;;;;4.07;2.43;;;29.20;44.20;;;;;;4918998;28;89464;-75
2022/06/12 11:37:47;;;;;;;6.07;2.33;;;29.20;44.30;;;;;;4920876;28;88551;-75
2022/06/12 11:40:20;;;;;;;4.33;2.00;;;29.20;44.30;;;;;;4920504;28;88579;-76
2022/06/12 11:42:54;;;;;;;3.87;2.60;;;29.20;44.20;;;;;;4919679;28;92756;-75
2022/06/12 11:45:47;;;;;;;5.07;2.20;;;29.20;44.20;;;;;;4910135;28;89621;-75
2022/06/12 11:48:27;;;;;;;3.63;2.27;;;29.20;44.20;;;;;;4908282;28;88749;-75
2022/06/12 11:50:59;;;;;;;2.87;1.90;;;29.20;44.20;;;;;;4908355;28;88509;-77
2022/06/12 11:53:39;;;;;;;6.93;2.60;;;29.20;44.20;;;;;;4912895;28;89575;-75
2022/06/12 11:56:12;;;;;;;3.73;2.30;;;29.20;44.20;;;;;;4916752;28;92962;-74
2022/06/12 11:58:49;;;;;;;4.23;2.40;;;29.20;44.10;;;;;;4917784;28;90590;-75
2022/06/12 12:01:20;;;;;;;4.93;3.00;;;29.20;44.10;;;;;;4916977;28;89095;-75
2022/06/12 12:04:04;;;;;;;7.40;2.93;;;29.30;44.20;;;;;;4918257;28;89508;-75
2022/06/12 12:06:44;;;;;;;3.93;2.97;;;29.20;44.70;;;;;;4917948;28;89727;-75
2022/06/12 12:09:21;;;;;;;5.37;3.03;;;29.20;44.00;;;;;;4918590;28;89018;-75
2022/06/12 12:11:50;;;;;;;3.53;2.50;;;29.30;44.10;;;;;;4917494;28;89842;-75
2022/06/12 12:14:21;;;;;;;7.60;3.40;;;29.30;44.10;;;;;;4917628;28;90967;-75
2022/06/12 12:16:50;;;;;;;4.67;3.20;;;29.30;44.00;;;;;;4915639;28;91774;-75
2022/06/12 12:19:20;;;;;;;7.20;3.33;;;29.30;43.90;;;;;;4916849;28;90107;-75
2022/06/12 12:21:50;;;;;;;6.87;3.60;;;29.30;43.90;;;;;;4913231;28;88638;-75
2022/06/12 12:24:22;;;;;;;6.43;3.80;;;29.30;43.80;;;;;;4913274;28;90746;-75
2022/06/12 12:26:50;;;;;;;5.13;3.03;;;29.40;43.90;;;;;;4915701;28;89963;-75
2022/06/12 12:29:21;;;;;;;4.67;3.43;;;29.40;43.80;;;;;;4913322;28;88959;-75
2022/06/12 12:31:50;;;;;;;6.30;3.43;;;29.40;43.80;;;;;;4916282;28;88732;-75
2022/06/12 12:34:20;;;;;;;5.93;3.60;;;29.40;43.80;;;;;;4915290;28;89532;-75
2022/06/12 12:42:26;;;;;;;7.53;3.73;;;29.50;44.10;;;;;;4915659;28;88687;-74
2022/06/12 12:44:54;;;;;;;6.60;3.73;;;29.50;43.70;;;;;;4916208;28;93255;-75
2022/06/12 12:47:23;;;;;;;7.87;3.73;;;29.50;43.70;;;;;;4918790;28;92942;-75
2022/06/12 12:50:02;;;;;;;8.83;4.53;;;29.50;43.70;;;;;;4918356;28;88546;-75
2022/06/12 12:52:39;;;;;;;6.37;4.60;;;29.50;43.60;;;;;;4914938;28;88685;-75
2022/06/12 12:55:17;;;;;;;9.37;5.27;;;29.50;43.60;;;;;;4912066;28;92854;-75
2022/06/12 12:57:45;;;;;;;7.07;4.20;;;29.50;43.60;;;;;;4918844;28;89588;-75
2022/06/12 13:00:24;;;;;;;9.43;5.00;;;29.50;43.50;;;;;;4914617;28;88503;-75
2022/06/12 13:02:54;;;;;;;6.90;4.90;;;29.60;43.60;;;;;;4907199;28;88731;-75
2022/06/12 13:05:23;;;;;;;6.67;4.87;;;29.60;43.50;;;;;;4911054;28;90650;-75
2022/06/12 13:08:00;;;;;;;7.37;5.27;;;29.60;44.10;;;;;;4909544;28;89362;-75
2022/06/12 13:10:36;;;;;;;8.77;5.20;;;29.60;44.10;;;;;;4919024;28;88437;-75
2022/06/12 13:13:28;;;;;;;10.17;5.60;;;29.60;43.40;;;;;;4915543;28;88634;-75
2022/06/12 13:15:58;;;;;;;6.90;5.13;;;29.60;43.30;;;;;;4911537;28;90040;-68
2022/06/12 13:18:40;;;;;;;8.20;5.17;;;29.70;43.40;;;;;;4914270;28;93219;-69
2022/06/12 13:21:12;;;;;;;8.70;5.07;;;29.70;43.30;;;;;;4913191;28;90436;-69
2022/06/12 13:23:51;;;;;;;8.37;4.80;;;29.70;43.30;;;;;;4917160;28;88424;-68
2022/06/12 13:26:24;;;;;;;7.23;4.87;;;29.70;43.20;;;;;;4919886;28;90961;-68